Time;durP1;ratioP1;P1;durP2;ratioP2;P2;SDS_P1;SDS_P2;PMS_P1;PMS_P2;Temp;Humidity;BMP_temperature;BMP_pressure;BME280_temperature;BME280_humidity;BME280_pressure;Samples;Min_cycle;Max_cycle;Signal;HPM_P1;HPM_P2
2022/07/03 00:02:24;;;;;;;1.48;0.85;;;21.00;95.00;;;;;;6216054;23;20240;-76
2022/07/03 00:04:50;;;;;;;2.45;1.00;;;20.90;95.10;;;;;;6215560;23;20212;-74
2022/07/03 00:07:18;;;;;;;3.22;1.02;;;20.90;95.30;;;;;;6214865;23;20181;-76
2022/07/03 00:09:49;;;;;;;1.98;1.10;;;20.90;95.40;;;;;;6214509;23;20149;-76
2022/07/03 00:12:17;;;;;;;2.80;1.10;;;20.80;95.60;;;;;;6216444;23;20157;-75
2022/07/03 00:14:42;;;;;;;1.63;1.08;;;20.80;95.80;;;;;;6215733;23;20173;-73
2022/07/03 00:17:11;;;;;;;1.30;0.85;;;20.80;96.00;;;;;;6215165;23;20180;-77
2022/07/03 00:19:39;;;;;;;2.65;1.20;;;20.70;96.10;;;;;;6215951;23;20204;-75
2022/07/03 00:22:10;;;;;;;2.95;1.20;;;20.70;96.30;;;;;;6216207;23;20150;-75
2022/07/03 00:24:52;;;;;;;2.28;1.30;;;20.70;96.50;;;;;;6215455;23;20189;-75
2022/07/03 00:27:24;;;;;;;1.35;1.15;;;20.70;96.60;;;;;;6215749;23;20234;-75
2022/07/03 00:29:53;;;;;;;2.50;1.30;;;20.60;96.70;;;;;;6214635;23;20153;-76
2022/07/03 00:32:27;;;;;;;1.45;1.20;;;20.60;97.00;;;;;;6214734;23;20173;-74
2022/07/03 00:34:54;;;;;;;2.13;1.10;;;20.60;97.00;;;;;;6214511;23;20447;-77
2022/07/03 00:37:23;;;;;;;2.47;1.13;;;20.60;97.30;;;;;;6215062;23;20169;-76
2022/07/03 00:39:51;;;;;;;2.15;1.00;;;20.60;97.40;;;;;;6215465;23;20158;-76
2022/07/03 00:42:22;;;;;;;2.17;1.10;;;20.60;97.60;;;;;;6216543;23;20181;-75
2022/07/03 00:44:56;;;;;;;1.13;0.80;;;20.60;97.70;;;;;;6215782;23;20177;-77
2022/07/03 00:47:27;;;;;;;2.97;1.05;;;20.50;97.80;;;;;;6215773;23;20146;-73
2022/07/03 00:49:59;;;;;;;2.97;1.10;;;20.50;98.00;;;;;;6215354;23;20157;-78
2022/07/03 00:52:25;;;;;;;4.43;1.17;;;20.50;98.10;;;;;;6215135;23;20205;-74
2022/07/03 00:54:56;;;;;;;1.95;1.20;;;20.50;98.30;;;;;;6216497;23;20181;-77
2022/07/03 00:57:23;;;;;;;1.35;0.95;;;20.40;98.40;;;;;;6214731;23;20157;-76
2022/07/03 00:59:50;;;;;;;1.63;1.10;;;20.40;98.60;;;;;;6215535;23;20251;-77
2022/07/03 01:02:38;;;;;;;2.03;1.00;;;20.30;98.70;;;;;;6219208;23;20165;-77
2022/07/03 01:05:24;;;;;;;2.22;1.13;;;20.30;99.10;;;;;;6216175;23;20441;-74
2022/07/03 01:08:19;;;;;;;1.17;0.80;;;20.30;99.00;;;;;;6214790;23;20173;-76
2022/07/03 01:11:06;;;;;;;1.75;0.90;;;20.20;99.10;;;;;;6216228;23;20176;-77
2022/07/03 01:13:34;;;;;;;2.53;1.00;;;20.20;99.30;;;;;;6216985;23;20161;-76
2022/07/03 01:16:25;;;;;;;2.67;1.00;;;20.20;99.50;;;;;;6216223;23;20181;-73
2022/07/03 01:18:50;;;;;;;1.67;1.15;;;20.10;99.60;;;;;;6214488;23;20160;-77
2022/07/03 01:21:41;;;;;;;1.92;0.90;;;20.10;99.80;;;;;;6215486;23;20236;-76
2022/07/03 01:24:22;;;;;;;2.38;1.00;;;20.10;99.90;;;;;;6214594;23;20196;-78
2022/07/03 01:26:55;;;;;;;1.92;0.90;;;20.00;99.90;;;;;;6215434;23;20215;-77
2022/07/03 01:29:47;;;;;;;2.13;0.98;;;20.00;99.90;;;;;;6214878;23;20164;-77
2022/07/03 01:32:14;;;;;;;1.42;0.90;;;20.00;99.90;;;;;;6218207;23;20157;-77
2022/07/03 01:34:49;;;;;;;1.45;1.00;;;20.00;99.90;;;;;;6218443;23;20177;-73
2022/07/03 01:37:17;;;;;;;2.65;1.10;;;20.00;99.90;;;;;;6215561;23;20188;-78
2022/07/03 01:39:50;;;;;;;1.30;1.00;;;20.00;99.90;;;;;;6217792;23;20169;-78
2022/07/03 01:42:19;;;;;;;1.83;1.10;;;20.00;99.90;;;;;;6215591;23;20161;-76
2022/07/03 01:44:50;;;;;;;1.10;0.90;;;20.00;99.90;;;;;;6215399;23;20191;-77
2022/07/03 01:47:20;;;;;;;2.00;1.10;;;19.90;99.90;;;;;;6218033;23;20149;-78
2022/07/03 01:49:48;;;;;;;2.25;1.10;;;19.90;99.90;;;;;;6219496;23;20153;-77
2022/07/03 01:52:14;;;;;;;2.10;1.13;;;19.90;99.90;;;;;;6214395;23;20185;-78
2022/07/03 01:54:42;;;;;;;1.92;1.10;;;19.90;99.90;;;;;;6214661;23;20204;-77
2022/07/03 01:57:08;;;;;;;1.95;1.13;;;19.90;99.90;;;;;;6217685;23;20187;-78
2022/07/03 01:59:35;;;;;;;2.17;1.00;;;19.90;99.90;;;;;;6214654;23;20240;-76
2022/07/03 02:02:08;;;;;;;1.58;1.00;;;19.90;99.90;;;;;;6214772;23;20213;-77
2022/07/03 02:04:56;;;;;;;0.95;0.75;;;19.80;99.90;;;;;;6218712;23;20188;-76
2022/07/03 02:07:42;;;;;;;2.42;1.02;;;19.80;99.90;;;;;;6220535;23;20283;-78
2022/07/03 02:10:13;;;;;;;1.45;1.00;;;19.70;99.90;;;;;;6215706;23;20165;-77
2022/07/03 02:12:51;;;;;;;2.22;0.90;;;19.70;99.90;;;;;;6219650;23;20213;-78
2022/07/03 02:15:26;;;;;;;1.65;1.10;;;19.60;99.90;;;;;;6214600;23;20161;-78
2022/07/03 02:17:56;;;;;;;2.95;1.00;;;19.60;99.90;;;;;;6215886;23;20232;-75
2022/07/03 02:20:24;;;;;;;1.40;1.08;;;19.60;99.90;;;;;;6213566;23;20181;-77
2022/07/03 02:23:07;;;;;;;1.88;1.10;;;19.60;99.90;;;;;;6214429;23;20239;-75
2022/07/03 02:25:36;;;;;;;0.90;0.80;;;19.60;99.90;;;;;;6214918;23;20173;-74
2022/07/03 02:28:16;;;;;;;1.48;0.90;;;19.60;99.90;;;;;;6215041;23;20211;-78
2022/07/03 02:30:48;;;;;;;1.95;1.10;;;19.50;99.90;;;;;;6214780;23;20149;-75
2022/07/03 02:33:21;;;;;;;2.63;1.00;;;19.50;99.90;;;;;;6216192;23;20150;-77
2022/07/03 02:35:48;;;;;;;1.73;1.20;;;19.50;99.90;;;;;;6214946;23;20153;-78
2022/07/03 02:38:20;;;;;;;4.10;1.08;;;19.50;99.90;;;;;;6215044;23;20169;-77
2022/07/03 02:41:04;;;;;;;4.90;1.00;;;19.40;99.90;;;;;;6215115;23;20145;-75
2022/07/03 02:43:46;;;;;;;3.03;1.05;;;19.40;99.90;;;;;;6214311;23;20159;-77
2022/07/03 02:49:25;;;;;;;1.02;0.85;;;19.40;99.90;;;;;;6217478;23;20176;-77
2022/07/03 02:52:20;;;;;;;1.92;0.90;;;19.30;99.90;;;;;;6192747;23;20252;-77
2022/07/03 02:54:49;;;;;;;2.05;0.90;;;19.30;99.90;;;;;;6213576;23;20181;-72
2022/07/03 02:57:19;;;;;;;1.60;0.95;;;19.30;99.90;;;;;;6215891;23;20153;-75
2022/07/03 02:59:56;;;;;;;1.52;0.95;;;19.30;99.90;;;;;;6213600;23;20188;-76
2022/07/03 03:02:22;;;;;;;1.50;1.00;;;19.30;99.90;;;;;;6214263;23;20284;-78
2022/07/03 03:05:34;;;;;;;6.03;1.20;;;19.30;99.90;;;;;;6214185;23;20231;-78
2022/07/03 03:08:19;;;;;;;2.25;1.08;;;19.30;99.90;;;;;;6185392;23;20153;-76
2022/07/03 03:10:48;;;;;;;1.83;1.02;;;19.30;99.90;;;;;;6213617;23;20149;-79
2022/07/03 03:13:19;;;;;;;1.75;1.17;;;19.20;99.90;;;;;;6213819;23;20150;-77
2022/07/03 03:16:06;;;;;;;1.38;0.90;;;19.20;99.90;;;;;;6213579;23;20157;-79
2022/07/03 03:18:34;;;;;;;1.77;1.10;;;19.20;99.90;;;;;;6213168;23;20160;-78
2022/07/03 03:21:02;;;;;;;1.75;0.80;;;19.10;99.90;;;;;;6212916;23;20181;-78
2022/07/03 03:23:48;;;;;;;2.40;1.00;;;19.10;99.90;;;;;;6213550;23;20240;-76
2022/07/03 03:26:21;;;;;;;1.65;1.00;;;19.10;99.90;;;;;;6213797;23;20177;-75
2022/07/03 03:28:50;;;;;;;1.60;1.15;;;19.10;99.90;;;;;;6215527;23;20175;-76
2022/07/03 03:31:19;;;;;;;2.22;1.10;;;19.00;99.90;;;;;;6215346;23;20160;-75
2022/07/03 03:33:48;;;;;;;2.10;0.98;;;19.00;99.90;;;;;;6215380;23;20162;-76
2022/07/03 03:36:16;;;;;;;1.52;1.00;;;19.00;99.90;;;;;;6215681;23;20154;-79
2022/07/03 03:38:45;;;;;;;1.98;1.10;;;18.90;99.90;;;;;;6215380;23;20180;-77
2022/07/03 03:41:13;;;;;;;1.90;0.95;;;18.90;99.90;;;;;;6217046;23;20149;-77
2022/07/03 03:43:44;;;;;;;1.90;1.15;;;18.90;99.90;;;;;;6215127;23;20184;-78
2022/07/03 03:46:14;;;;;;;2.88;1.00;;;18.90;99.90;;;;;;6215695;23;20245;-79
2022/07/03 03:48:40;;;;;;;1.70;1.10;;;18.80;99.90;;;;;;6215000;23;20165;-78
2022/07/03 03:51:07;;;;;;;1.58;1.10;;;18.80;99.90;;;;;;6215164;23;20212;-78
2022/07/03 03:53:35;;;;;;;3.50;1.20;;;18.80;99.90;;;;;;6214963;23;20233;-78
2022/07/03 03:56:06;;;;;;;1.35;1.00;;;18.80;99.90;;;;;;6214502;23;20177;-78
2022/07/03 03:58:35;;;;;;;2.20;1.30;;;18.80;99.90;;;;;;6214836;23;20172;-79
2022/07/03 04:01:04;;;;;;;1.83;1.27;;;18.80;99.90;;;;;;6215361;23;20157;-78
2022/07/03 04:03:31;;;;;;;1.10;1.00;;;18.80;99.90;;;;;;6214916;23;20247;-78
2022/07/03 04:05:56;;;;;;;1.77;1.00;;;18.80;99.90;;;;;;6214655;23;20239;-75
2022/07/03 04:08:23;;;;;;;1.85;1.20;;;18.80;99.90;;;;;;6214948;23;20179;-75
2022/07/03 04:10:49;;;;;;;1.25;1.08;;;18.80;99.90;;;;;;6215214;23;20153;-77
2022/07/03 04:13:16;;;;;;;1.40;0.90;;;18.70;99.90;;;;;;6215399;23;20261;-79
2022/07/03 04:15:46;;;;;;;1.65;1.15;;;18.70;99.90;;;;;;6219060;23;20169;-78
2022/07/03 04:18:12;;;;;;;1.50;1.10;;;18.70;99.90;;;;;;6216255;23;20157;-78
2022/07/03 04:20:38;;;;;;;1.73;1.10;;;18.70;99.90;;;;;;6216916;23;20188;-78
2022/07/03 04:23:03;;;;;;;1.35;0.90;;;18.70;99.90;;;;;;6214907;23;20188;-73
2022/07/03 04:25:32;;;;;;;1.30;0.98;;;18.70;99.90;;;;;;6216372;23;20181;-77
2022/07/03 04:28:00;;;;;;;1.30;0.90;;;18.70;99.90;;;;;;6218259;23;20157;-78
2022/07/03 04:30:28;;;;;;;2.50;1.00;;;18.70;99.90;;;;;;6215061;23;20153;-75
2022/07/03 04:32:56;;;;;;;1.10;0.90;;;18.80;99.90;;;;;;6215261;23;20155;-77
2022/07/03 04:35:22;;;;;;;1.80;1.20;;;18.80;99.90;;;;;;6216278;23;20173;-76
2022/07/03 04:37:47;;;;;;;2.03;0.90;;;18.80;99.90;;;;;;6218193;23;20400;-75
2022/07/03 04:40:13;;;;;;;1.30;0.90;;;18.90;99.90;;;;;;6216364;23;20181;-77
2022/07/03 04:42:39;;;;;;;1.88;0.93;;;18.90;99.90;;;;;;6215848;23;20219;-78
2022/07/03 04:45:08;;;;;;;2.78;1.40;;;18.90;99.90;;;;;;6214960;23;20177;-78
2022/07/03 04:47:36;;;;;;;2.60;1.00;;;19.00;99.90;;;;;;6215113;23;20149;-79
2022/07/03 04:50:02;;;;;;;1.98;1.00;;;19.00;99.90;;;;;;6216135;23;20177;-73
2022/07/03 04:52:30;;;;;;;1.80;1.10;;;19.10;99.90;;;;;;6218069;23;20163;-68
2022/07/03 04:54:56;;;;;;;1.52;0.93;;;19.10;99.90;;;;;;6191506;23;20176;-78
2022/07/03 04:57:22;;;;;;;1.10;0.95;;;19.20;99.90;;;;;;6222205;23;20164;-79
2022/07/03 04:59:48;;;;;;;3.03;1.00;;;19.20;99.90;;;;;;6215065;23;20177;-77
2022/07/03 05:02:13;;;;;;;1.35;1.00;;;19.30;99.90;;;;;;6218803;23;20295;-74
2022/07/03 05:04:41;;;;;;;1.85;1.00;;;19.40;99.90;;;;;;6218320;23;20188;-77
2022/07/03 05:07:09;;;;;;;1.63;0.90;;;19.40;99.90;;;;;;6215358;23;20181;-77
2022/07/03 05:09:34;;;;;;;1.33;0.90;;;19.50;99.90;;;;;;6215814;23;20233;-77
2022/07/03 05:12:00;;;;;;;1.67;1.00;;;19.50;99.90;;;;;;6216894;23;20154;-78
2022/07/03 05:14:26;;;;;;;1.40;0.90;;;19.50;99.90;;;;;;6215684;23;20306;-70
2022/07/03 05:16:51;;;;;;;1.20;0.90;;;19.60;99.90;;;;;;6216155;23;20241;-70
2022/07/03 05:19:17;;;;;;;1.30;0.98;;;19.60;99.90;;;;;;6219816;23;20164;-70
2022/07/03 05:21:42;;;;;;;1.70;0.90;;;19.70;99.90;;;;;;6220703;23;20161;-70
2022/07/03 05:24:11;;;;;;;2.15;1.20;;;19.70;99.90;;;;;;6216190;23;20264;-70
2022/07/03 05:26:39;;;;;;;1.33;0.80;;;19.80;99.90;;;;;;6214178;23;20160;-70
2022/07/03 05:29:04;;;;;;;1.95;1.10;;;19.80;99.90;;;;;;6219533;23;20161;-67
2022/07/03 05:31:30;;;;;;;1.63;1.00;;;19.80;99.90;;;;;;6222215;23;20157;-70
2022/07/03 05:33:55;;;;;;;1.10;0.80;;;19.90;99.90;;;;;;6215834;23;20173;-70
2022/07/03 05:36:24;;;;;;;1.73;0.90;;;19.90;99.90;;;;;;6215052;23;20145;-70
2022/07/03 05:41:36;;;;;;;1.98;0.90;;;20.00;99.90;;;;;;6223201;23;20162;-68
2022/07/03 05:44:01;;;;;;;2.97;0.90;;;20.00;99.90;;;;;;6220351;23;20430;-69
2022/07/03 05:46:30;;;;;;;1.67;0.80;;;20.10;99.90;;;;;;6215837;23;20248;-69
2022/07/03 05:48:55;;;;;;;1.67;1.00;;;20.10;99.90;;;;;;6220270;23;20161;-69
2022/07/03 05:51:21;;;;;;;2.47;1.00;;;20.20;99.90;;;;;;6226056;23;20188;-69
2022/07/03 05:53:49;;;;;;;1.35;0.90;;;20.20;99.90;;;;;;6216324;23;20154;-70
2022/07/03 05:56:14;;;;;;;1.17;0.93;;;20.30;99.90;;;;;;6215370;23;20154;-70
2022/07/03 05:58:41;;;;;;;1.38;1.00;;;20.30;99.90;;;;;;6225557;23;20184;-69
2022/07/03 06:01:07;;;;;;;1.20;0.90;;;20.30;99.90;;;;;;6219169;23;20174;-69
2022/07/03 06:03:34;;;;;;;1.88;0.95;;;20.40;99.90;;;;;;6220205;23;20154;-69
2022/07/03 06:06:00;;;;;;;1.10;1.00;;;20.40;99.90;;;;;;6215565;23;20197;-69
2022/07/03 06:08:26;;;;;;;1.17;0.80;;;20.50;99.90;;;;;;6219442;23;20168;-69
2022/07/03 06:10:55;;;;;;;0.82;0.80;;;20.60;99.90;;;;;;6226431;23;20160;-70
2022/07/03 06:13:20;;;;;;;1.17;0.90;;;20.60;99.90;;;;;;6215844;23;20179;-70
2022/07/03 06:15:48;;;;;;;1.75;1.05;;;20.60;99.90;;;;;;6222369;23;20153;-72
2022/07/03 06:18:14;;;;;;;2.42;0.95;;;20.70;99.90;;;;;;6225774;23;20200;-70
2022/07/03 06:20:44;;;;;;;1.83;0.80;;;20.70;99.90;;;;;;6220791;23;20177;-71
2022/07/03 06:23:10;;;;;;;2.30;0.80;;;20.80;99.90;;;;;;6220246;23;20157;-70
2022/07/03 06:25:40;;;;;;;2.15;0.80;;;20.80;99.90;;;;;;6222902;23;20187;-71
2022/07/03 06:28:06;;;;;;;1.05;0.60;;;20.90;99.90;;;;;;6217214;23;20177;-71
2022/07/03 06:30:34;;;;;;;1.02;0.80;;;20.90;99.90;;;;;;6219522;23;20358;-72
2022/07/03 06:32:59;;;;;;;1.08;0.82;;;21.00;99.90;;;;;;6218114;23;20154;-71
2022/07/03 06:35:25;;;;;;;1.10;0.90;;;21.00;99.90;;;;;;6216030;23;20268;-71
2022/07/03 06:37:50;;;;;;;1.02;0.70;;;21.00;99.90;;;;;;6218398;23;20157;-72
2022/07/03 06:40:18;;;;;;;1.55;0.80;;;21.10;99.90;;;;;;6217869;23;20160;-72
2022/07/03 06:42:46;;;;;;;1.13;0.80;;;21.10;99.90;;;;;;6220657;23;20168;-72
2022/07/03 06:45:16;;;;;;;1.00;0.90;;;21.20;99.90;;;;;;6218554;23;20192;-72
2022/07/03 06:47:42;;;;;;;1.38;0.88;;;21.20;99.90;;;;;;6221673;23;20150;-71
2022/07/03 06:50:08;;;;;;;1.33;0.80;;;21.30;99.90;;;;;;6222294;23;20179;-70
2022/07/03 06:52:33;;;;;;;1.23;0.93;;;21.30;99.90;;;;;;6223485;23;20181;-72
2022/07/03 06:54:59;;;;;;;2.30;1.20;;;21.40;99.90;;;;;;6222713;23;20150;-72
2022/07/03 06:57:25;;;;;;;1.40;0.90;;;21.40;99.90;;;;;;6217351;23;20154;-72
2022/07/03 06:59:50;;;;;;;1.25;0.80;;;21.40;99.90;;;;;;6215083;23;20173;-72
2022/07/03 07:02:16;;;;;;;2.92;1.25;;;21.50;99.90;;;;;;6215150;23;20181;-71
2022/07/03 07:04:44;;;;;;;1.67;1.40;;;21.50;99.90;;;;;;6220118;23;20284;-71
2022/07/03 07:07:10;;;;;;;2.15;1.02;;;21.60;99.90;;;;;;6220719;23;20149;-71
2022/07/03 07:09:38;;;;;;;2.88;1.10;;;21.60;99.90;;;;;;6220525;23;20157;-72
2022/07/03 07:12:04;;;;;;;1.88;1.55;;;21.70;99.90;;;;;;6221785;23;20224;-69
2022/07/03 07:14:32;;;;;;;1.40;1.15;;;21.70;99.90;;;;;;6219153;23;20161;-71
2022/07/03 07:17:00;;;;;;;2.05;1.40;;;21.80;99.90;;;;;;6221371;23;20161;-71
2022/07/03 07:19:26;;;;;;;1.30;1.10;;;21.80;99.90;;;;;;6219717;23;20236;-68
2022/07/03 07:21:51;;;;;;;2.10;0.95;;;21.90;99.90;;;;;;6221674;23;20153;-71
2022/07/03 07:24:17;;;;;;;1.02;0.88;;;21.90;99.90;;;;;;6216590;23;20196;-72
2022/07/03 07:26:43;;;;;;;1.63;1.00;;;21.90;99.90;;;;;;6216447;23;20240;-71
2022/07/03 07:29:08;;;;;;;1.88;0.90;;;22.00;99.90;;;;;;6216703;23;20448;-71
2022/07/03 07:31:34;;;;;;;2.38;1.60;;;22.00;99.90;;;;;;6213977;23;20216;-71
2022/07/03 07:34:04;;;;;;;2.40;1.20;;;22.10;99.90;;;;;;6215696;23;20236;-71
2022/07/03 07:36:32;;;;;;;1.35;1.20;;;22.10;99.90;;;;;;6216034;23;20175;-71
2022/07/03 07:38:58;;;;;;;1.58;1.20;;;22.20;99.90;;;;;;6216262;23;20239;-71
2022/07/03 07:41:23;;;;;;;2.95;1.17;;;22.20;99.90;;;;;;6215877;23;20153;-71
2022/07/03 07:43:49;;;;;;;2.17;1.33;;;22.30;99.90;;;;;;6215324;23;20156;-70
2022/07/03 07:46:17;;;;;;;2.60;1.40;;;22.30;99.90;;;;;;6215930;23;20174;-71
2022/07/03 07:48:42;;;;;;;1.38;1.00;;;22.40;99.90;;;;;;6215499;23;20141;-72
2022/07/03 07:51:08;;;;;;;1.40;1.00;;;22.40;99.90;;;;;;6215083;23;20161;-72
2022/07/03 07:53:36;;;;;;;2.08;1.38;;;22.50;99.90;;;;;;6215320;23;20149;-71
2022/07/03 07:56:02;;;;;;;2.63;1.42;;;22.50;99.90;;;;;;6215425;23;20205;-72
2022/07/03 07:58:32;;;;;;;3.90;1.67;;;22.60;99.90;;;;;;6215095;23;20161;-74
2022/07/03 08:06:26;;;;;;;4.13;1.60;;;22.70;99.90;;;;;;6216397;23;20172;-73
2022/07/03 08:08:51;;;;;;;1.80;1.23;;;22.80;99.90;;;;;;6215115;23;20241;-73
2022/07/03 08:11:17;;;;;;;3.25;1.55;;;22.90;99.90;;;;;;6214397;23;20242;-76
2022/07/03 08:13:45;;;;;;;1.92;1.23;;;22.90;99.90;;;;;;6215191;23;20174;-76
2022/07/03 08:16:12;;;;;;;2.38;1.30;;;23.00;99.90;;;;;;6215465;23;20170;-77
2022/07/03 08:18:40;;;;;;;1.80;1.10;;;23.00;99.90;;;;;;6215245;23;20158;-77
2022/07/03 08:21:06;;;;;;;1.33;1.00;;;23.00;99.90;;;;;;6215479;23;20161;-76
2022/07/03 08:23:32;;;;;;;2.35;1.20;;;23.10;99.90;;;;;;6215756;23;20292;-74
2022/07/03 08:25:59;;;;;;;2.53;1.17;;;23.10;99.90;;;;;;6216427;23;20213;-76
2022/07/03 08:28:30;;;;;;;2.28;1.38;;;23.20;99.90;;;;;;6215146;23;20219;-76
2022/07/03 08:30:58;;;;;;;1.48;1.20;;;23.30;99.90;;;;;;6215357;23;20181;-78
2022/07/03 08:33:26;;;;;;;3.63;1.30;;;23.30;99.90;;;;;;6215760;23;20176;-77
2022/07/03 08:35:51;;;;;;;3.42;1.40;;;23.40;99.90;;;;;;6215288;23;20157;-84
2022/07/03 08:38:17;;;;;;;1.38;1.20;;;23.50;99.90;;;;;;6215087;23;20153;-81
2022/07/03 08:40:44;;;;;;;2.90;1.42;;;23.50;99.90;;;;;;6214860;23;20177;-79
2022/07/03 08:43:10;;;;;;;2.00;1.20;;;23.60;99.90;;;;;;6215985;23;20304;-83
2022/07/03 08:45:37;;;;;;;2.97;1.10;;;23.70;99.90;;;;;;6215746;23;20236;-86
2022/07/03 08:48:05;;;;;;;1.60;1.05;;;23.70;99.90;;;;;;6218242;23;20154;-80
2022/07/03 08:50:36;;;;;;;2.90;1.20;;;23.70;99.90;;;;;;6218914;23;20153;-86
2022/07/03 08:53:05;;;;;;;1.73;1.27;;;23.80;99.90;;;;;;6217593;23;20149;-88
2022/07/03 08:55:30;;;;;;;2.05;1.20;;;23.80;99.90;;;;;;6217354;23;20157;-83
2022/07/03 08:58:00;;;;;;;1.55;1.02;;;23.90;99.90;;;;;;6220475;23;20185;-81
2022/07/03 09:00:29;;;;;;;3.22;1.40;;;23.90;99.90;;;;;;6215931;23;20189;-80
2022/07/03 09:02:59;;;;;;;2.85;1.30;;;24.00;99.90;;;;;;6221756;23;20163;-74
2022/07/03 09:05:27;;;;;;;2.00;1.08;;;24.10;99.90;;;;;;6217189;23;20177;-77
2022/07/03 09:07:54;;;;;;;1.50;1.10;;;24.10;99.90;;;;;;6215468;23;20207;-82
2022/07/03 09:10:19;;;;;;;1.77;0.90;;;24.20;99.90;;;;;;6218491;23;20153;-81
2022/07/03 09:12:50;;;;;;;3.25;1.35;;;24.30;99.90;;;;;;6218548;23;20160;-83
2022/07/03 09:15:19;;;;;;;2.25;1.15;;;24.30;99.90;;;;;;6217308;23;20235;-81
2022/07/03 09:18:07;;;;;;;2.28;1.33;;;24.40;99.90;;;;;;6221411;23;20194;-80
2022/07/03 09:20:43;;;;;;;1.50;1.10;;;24.40;99.90;;;;;;6217269;23;20153;-80
2022/07/03 09:23:20;;;;;;;1.45;1.00;;;24.40;99.90;;;;;;6218898;23;20157;-81
2022/07/03 09:26:02;;;;;;;1.55;1.00;;;24.40;99.90;;;;;;6216363;23;20181;-80
2022/07/03 09:28:51;;;;;;;1.63;1.10;;;24.40;99.90;;;;;;6222970;23;20153;-69
2022/07/03 09:31:19;;;;;;;2.05;0.95;;;24.50;99.90;;;;;;6225660;23;20152;-77
2022/07/03 09:33:58;;;;;;;1.67;1.13;;;24.50;99.90;;;;;;6225280;23;20208;-76
2022/07/03 09:36:46;;;;;;;1.85;1.10;;;24.60;99.90;;;;;;6221885;23;20145;-72
2022/07/03 09:39:24;;;;;;;3.13;1.30;;;24.70;99.90;;;;;;6219198;23;20149;-77
2022/07/03 09:41:56;;;;;;;2.85;1.23;;;24.80;99.90;;;;;;6222931;23;20184;-78
2022/07/03 09:44:32;;;;;;;1.95;1.15;;;24.90;99.90;;;;;;6228718;23;20181;-72
2022/07/03 09:47:12;;;;;;;2.47;1.27;;;25.00;99.90;;;;;;6221226;23;20168;-77
2022/07/03 09:50:11;;;;;;;2.10;1.15;;;25.10;99.90;;;;;;6216966;23;20413;-72
2022/07/03 09:52:47;;;;;;;2.75;1.20;;;25.20;99.90;;;;;;6222719;23;20240;-76
2022/07/03 09:55:16;;;;;;;2.60;1.30;;;25.30;99.90;;;;;;6227392;23;20149;-76
2022/07/03 09:57:49;;;;;;;3.65;1.10;;;25.40;99.90;;;;;;6222667;23;20177;-77
2022/07/03 10:00:36;;;;;;;2.60;1.40;;;25.40;99.90;;;;;;6215270;23;20276;-72
2022/07/03 10:03:07;;;;;;;2.38;1.10;;;25.50;99.90;;;;;;6216875;23;20173;-78
2022/07/03 10:05:37;;;;;;;2.55;1.10;;;25.60;99.90;;;;;;6222332;23;20184;-72
2022/07/03 10:08:13;;;;;;;3.50;1.10;;;25.70;99.90;;;;;;6220127;23;20173;-75
2022/07/03 10:10:46;;;;;;;1.52;0.98;;;25.70;99.90;;;;;;6221712;23;20149;-76
2022/07/03 10:13:15;;;;;;;3.17;1.10;;;25.80;99.90;;;;;;6220760;23;20184;-72
2022/07/03 10:15:42;;;;;;;3.28;1.48;;;25.90;99.90;;;;;;6222804;23;20154;-77
2022/07/03 10:18:12;;;;;;;1.95;1.40;;;26.10;99.90;;;;;;6221035;23;20178;-75
2022/07/03 10:20:50;;;;;;;3.22;1.40;;;26.10;99.90;;;;;;6216563;23;20207;-76
2022/07/03 10:23:17;;;;;;;2.80;1.30;;;26.20;99.90;;;;;;6220479;23;20168;-76
2022/07/03 10:25:44;;;;;;;2.50;1.10;;;26.20;99.90;;;;;;6220266;23;20196;-71
2022/07/03 10:28:15;;;;;;;2.53;1.23;;;26.30;99.90;;;;;;6221022;23;20161;-76
2022/07/03 10:30:45;;;;;;;1.17;1.08;;;26.40;99.90;;;;;;6221143;23;20149;-69
2022/07/03 10:33:13;;;;;;;2.45;1.23;;;26.50;99.90;;;;;;6229235;23;20169;-76
2022/07/03 10:35:45;;;;;;;1.75;1.13;;;26.60;99.90;;;;;;6222289;23;20181;-71
2022/07/03 10:38:39;;;;;;;1.58;1.10;;;26.70;99.90;;;;;;6217232;23;20150;-73
2022/07/03 10:46:55;;;;;;;1.30;1.00;;;27.20;99.90;;;;;;6222627;23;20148;-74
2022/07/03 10:49:21;;;;;;;1.95;1.10;;;27.30;99.90;;;;;;6220276;23;20146;-76
2022/07/03 10:51:56;;;;;;;2.45;1.20;;;27.50;99.90;;;;;;6219924;23;20172;-72
2022/07/03 10:54:29;;;;;;;2.88;1.00;;;27.70;99.90;;;;;;6213223;23;20587;-77
2022/07/03 10:56:57;;;;;;;2.58;1.00;;;27.90;99.90;;;;;;6214650;23;20160;-74
2022/07/03 10:59:35;;;;;;;1.20;0.90;;;28.10;99.90;;;;;;6217998;23;20157;-75
2022/07/03 11:02:20;;;;;;;1.75;1.15;;;28.40;99.90;;;;;;6219576;23;20163;-76
2022/07/03 11:07:31;;;;;;;1.27;0.80;;;28.80;99.90;;;;;;6230159;23;20165;-77
2022/07/03 11:10:09;;;;;;;3.05;1.10;;;29.00;99.90;;;;;;6217147;23;20149;-75
2022/07/03 11:12:57;;;;;;;1.63;0.98;;;29.20;99.90;;;;;;6225136;23;20153;-77
2022/07/03 11:15:44;;;;;;;2.28;0.93;;;29.40;99.90;;;;;;6219581;23;20247;-73
2022/07/03 11:18:25;;;;;;;1.05;0.68;;;29.60;99.90;;;;;;6216910;23;20525;-73
2022/07/03 11:20:51;;;;;;;1.17;0.88;;;29.70;99.90;;;;;;6217469;23;20137;-72
2022/07/03 11:23:26;;;;;;;2.92;1.00;;;29.90;99.90;;;;;;6222225;23;20262;-69
2022/07/03 11:25:53;;;;;;;1.23;0.82;;;30.00;99.90;;;;;;6221163;23;20164;-71
2022/07/03 11:28:33;;;;;;;1.52;0.90;;;30.00;99.90;;;;;;6219077;23;20164;-72
2022/07/03 11:31:10;;;;;;;2.30;0.95;;;30.10;98.50;;;;;;6215351;23;20341;-74
2022/07/03 11:33:42;;;;;;;0.95;0.82;;;30.30;97.90;;;;;;6219307;23;20148;-78
2022/07/03 11:36:16;;;;;;;0.80;0.73;;;30.40;98.10;;;;;;6214514;23;20176;-75
2022/07/03 11:38:43;;;;;;;0.65;0.60;;;30.50;97.80;;;;;;6215426;23;20155;-76
2022/07/03 11:41:11;;;;;;;1.88;0.80;;;30.70;99.30;;;;;;6217172;23;20161;-76
2022/07/03 11:43:45;;;;;;;1.60;0.63;;;30.80;98.50;;;;;;6216901;23;20185;-74
2022/07/03 11:46:23;;;;;;;0.70;0.65;;;31.00;98.40;;;;;;6216070;23;20206;-71
2022/07/03 11:48:49;;;;;;;1.40;0.80;;;31.20;96.10;;;;;;6219902;23;20141;-74
2022/07/03 11:51:16;;;;;;;2.10;1.00;;;31.20;94.10;;;;;;6221182;23;20220;-71
2022/07/03 11:53:44;;;;;;;2.83;1.00;;;31.30;94.40;;;;;;6221255;23;20157;-75
2022/07/03 11:56:14;;;;;;;0.95;0.80;;;31.30;93.40;;;;;;6218780;23;20152;-76
2022/07/03 11:58:58;;;;;;;1.92;0.80;;;31.40;91.10;;;;;;6214715;23;20173;-77
2022/07/03 12:01:26;;;;;;;1.73;0.77;;;31.40;91.10;;;;;;6214218;23;20153;-77
2022/07/03 12:03:53;;;;;;;1.98;1.00;;;31.40;92.40;;;;;;6214156;23;20279;-74
2022/07/03 12:06:20;;;;;;;1.67;0.90;;;31.40;92.90;;;;;;6214932;23;20152;-75
2022/07/03 12:08:46;;;;;;;1.50;1.10;;;31.40;91.60;;;;;;6214838;23;20159;-76
2022/07/03 12:11:16;;;;;;;1.67;1.10;;;31.50;91.90;;;;;;6213877;23;20168;-76
2022/07/03 12:13:43;;;;;;;2.00;1.10;;;31.50;90.70;;;;;;6213704;23;20152;-75
2022/07/03 12:16:13;;;;;;;3.22;1.20;;;31.50;91.70;;;;;;6214104;23;20153;-75
2022/07/03 12:18:45;;;;;;;1.35;1.00;;;31.60;90.50;;;;;;6214441;23;20181;-76
2022/07/03 12:21:15;;;;;;;1.25;0.90;;;31.60;87.70;;;;;;6213819;23;20891;-73
2022/07/03 12:23:48;;;;;;;1.58;0.82;;;31.50;86.60;;;;;;6213729;23;20157;-74
2022/07/03 12:26:27;;;;;;;2.80;1.02;;;31.50;85.50;;;;;;6212779;23;20212;-73
2022/07/03 12:28:52;;;;;;;1.88;0.82;;;31.30;88.00;;;;;;6215559;23;20222;-77
2022/07/03 12:31:23;;;;;;;1.33;0.90;;;31.20;88.80;;;;;;6214415;23;20161;-75
2022/07/03 12:33:51;;;;;;;1.00;0.80;;;31.20;87.70;;;;;;6216456;23;20180;-75
2022/07/03 12:36:19;;;;;;;1.92;1.23;;;31.20;88.80;;;;;;6214933;23;20239;-78
2022/07/03 12:38:53;;;;;;;1.58;0.80;;;31.20;87.10;;;;;;6224790;23;20164;-76
2022/07/03 12:41:20;;;;;;;1.77;1.00;;;31.30;87.10;;;;;;6220579;23;20160;-76
2022/07/03 12:43:51;;;;;;;1.13;0.73;;;31.40;88.50;;;;;;6219310;23;20220;-70
2022/07/03 12:46:31;;;;;;;0.70;0.60;;;31.60;87.70;;;;;;6221238;23;20173;-73
2022/07/03 12:48:58;;;;;;;1.00;0.70;;;31.70;86.50;;;;;;6215748;23;20149;-74
2022/07/03 12:52:01;;;;;;;1.23;0.73;;;31.90;87.10;;;;;;6214281;23;20153;-77
2022/07/03 12:54:37;;;;;;;1.30;0.98;;;32.00;81.30;;;;;;6152989;23;20152;-73
2022/07/03 13:00:07;;;;;;;1.55;1.15;;;31.90;78.40;;;;;;6214509;23;20176;-76
2022/07/03 13:02:34;;;;;;;2.78;1.10;;;31.60;77.30;;;;;;6213492;23;20168;-76
2022/07/03 13:05:02;;;;;;;1.65;1.00;;;31.50;79.10;;;;;;6213455;23;20215;-76
2022/07/03 13:07:31;;;;;;;1.48;0.90;;;31.30;76.90;;;;;;6213043;23;20159;-76
2022/07/03 13:10:03;;;;;;;1.90;1.05;;;31.10;77.50;;;;;;6212799;23;20153;-76
2022/07/03 13:12:29;;;;;;;2.45;1.30;;;30.90;76.40;;;;;;6214053;23;20433;-76
2022/07/03 13:15:08;;;;;;;1.38;1.02;;;30.70;78.90;;;;;;6213477;23;20152;-77
2022/07/03 13:17:52;;;;;;;1.58;1.00;;;30.60;75.60;;;;;;6214098;23;20168;-76
2022/07/03 13:20:21;;;;;;;1.77;1.05;;;30.40;72.30;;;;;;6212920;23;20181;-76
2022/07/03 13:22:55;;;;;;;1.63;0.95;;;30.20;77.20;;;;;;6215833;23;20185;-80
2022/07/03 13:25:21;;;;;;;2.67;0.82;;;30.00;76.70;;;;;;6213518;23;20259;-77
2022/07/03 13:27:49;;;;;;;2.42;0.88;;;29.90;78.50;;;;;;6213936;23;20184;-77
2022/07/03 13:30:17;;;;;;;4.40;1.08;;;29.70;79.30;;;;;;6217803;23;20145;-80